createdAt,value
2019-03-16T00:00:25.251Z,6.54
2019-03-16T00:03:55.318Z,6.51
2019-03-16T00:07:32.814Z,6.51
2019-03-16T00:11:03.487Z,6.5
2019-03-16T00:14:33.577Z,6.51
2019-03-16T00:18:03.731Z,6.55
2019-03-16T00:21:33.764Z,6.58
2019-03-16T00:25:03.977Z,6.65
2019-03-16T00:28:34.949Z,6.65
2019-03-16T00:32:13.442Z,6.7
2019-03-16T00:35:44.023Z,6.76
2019-03-16T00:39:14.032Z,6.77
2019-03-16T00:42:44.380Z,6.78
2019-03-16T00:46:14.525Z,6.77
2019-03-16T00:49:44.619Z,6.76
2019-03-16T00:53:14.802Z,6.78
2019-03-16T00:56:44.935Z,6.78
2019-03-16T01:00:15.398Z,6.86
2019-03-16T01:03:45.521Z,6.82
2019-03-16T01:07:15.554Z,6.62
2019-03-16T01:10:45.597Z,6.47
2019-03-16T01:14:15.670Z,6.36
2019-03-16T01:17:45.654Z,6.4
2019-03-16T01:21:15.787Z,6.49
2019-03-16T01:24:45.922Z,6.53
2019-03-16T01:28:16.023Z,6.58
2019-03-16T01:31:46.276Z,6.56
2019-03-16T01:35:16.249Z,6.3
2019-03-16T01:38:46.292Z,6.02
2019-03-16T01:42:16.359Z,5.81
2019-03-16T01:45:46.509Z,5.65
2019-03-16T01:49:16.592Z,5.4
2019-03-16T01:52:46.640Z,5.39
2019-03-16T01:56:16.668Z,5.35
2019-03-16T01:59:46.793Z,5.16
2019-03-16T02:00:16.402Z,5.11
2019-03-16T02:03:46.656Z,4.89
2019-03-16T02:07:16.678Z,4.9
2019-03-16T02:10:46.652Z,5.1
2019-03-16T02:14:16.764Z,5.28
2019-03-16T02:17:46.716Z,5.53
2019-03-16T02:21:16.990Z,5.67
2019-03-16T02:24:47.026Z,5.4
2019-03-16T02:28:17.136Z,5.24
2019-03-16T02:31:47.419Z,5.01
2019-03-16T02:35:17.534Z,4.82
2019-03-16T02:38:47.627Z,4.7
2019-03-16T02:42:17.729Z,4.6
2019-03-16T02:45:47.852Z,4.59
2019-03-16T02:49:17.995Z,4.54
2019-03-16T02:52:50.018Z,4.56
2019-03-16T02:56:20.332Z,4.61
2019-03-16T02:59:50.174Z,4.54
2019-03-16T03:03:29.527Z,4.47
2019-03-16T03:07:00.331Z,4.43
2019-03-16T03:10:30.333Z,4.38
2019-03-16T03:14:00.326Z,4.39
2019-03-16T03:17:30.376Z,4.35
2019-03-16T03:21:00.382Z,4.33
2019-03-16T03:24:30.456Z,4.3
2019-03-16T03:28:00.460Z,4.21
2019-03-16T03:31:30.607Z,4.17
2019-03-16T03:35:01.713Z,4.15
2019-03-16T03:38:31.810Z,4.1
2019-03-16T03:42:01.809Z,4.08
2019-03-16T03:45:31.941Z,4.07
2019-03-16T03:49:02.060Z,4.01
2019-03-16T03:52:32.117Z,4
2019-03-16T03:56:02.190Z,4.01
2019-03-16T03:59:32.346Z,4.02
2019-03-16T04:00:16.511Z,4.02
2019-03-16T04:03:46.623Z,4.03
2019-03-16T04:07:20.059Z,3.98
2019-03-16T04:10:50.739Z,3.97
2019-03-16T04:14:20.796Z,3.94
2019-03-16T04:17:50.873Z,3.91
2019-03-16T04:21:21.074Z,3.95
2019-03-16T04:24:51.227Z,3.95
2019-03-16T04:28:21.248Z,3.92
2019-03-16T04:31:51.230Z,3.95
2019-03-16T04:35:22.272Z,3.94
2019-03-16T04:38:52.395Z,3.93
2019-03-16T04:42:22.527Z,3.98
2019-03-16T04:45:52.624Z,3.97
2019-03-16T04:49:22.687Z,4.05
2019-03-16T04:52:52.674Z,4.07
2019-03-16T04:56:22.742Z,4.12
2019-03-16T04:59:52.777Z,4.27
2019-03-16T05:03:22.844Z,4.42
2019-03-16T05:06:52.826Z,4.55
2019-03-16T05:10:22.854Z,4.69
2019-03-16T05:13:52.947Z,4.81
2019-03-16T05:17:23.018Z,4.84
2019-03-16T05:20:53.000Z,4.91
2019-03-16T05:24:23.194Z,5.02
2019-03-16T05:27:53.211Z,5.01
2019-03-16T05:31:23.289Z,5.17
2019-03-16T05:34:56.696Z,5.37
2019-03-16T05:38:27.111Z,5.48
2019-03-16T05:41:57.103Z,5.55
2019-03-16T05:45:27.186Z,5.59
2019-03-16T05:48:57.098Z,5.64
2019-03-16T05:52:27.210Z,5.81
2019-03-16T05:55:57.181Z,5.89
2019-03-16T05:59:27.184Z,6
2019-03-16T06:00:16.798Z,6.05
2019-03-16T06:03:46.767Z,6.14
2019-03-16T06:07:16.820Z,6.31
2019-03-16T06:10:46.816Z,6.48
2019-03-16T06:14:16.903Z,6.57
2019-03-16T06:17:46.936Z,6.73
2019-03-16T06:21:17.028Z,6.75
2019-03-16T06:24:47.150Z,6.94
2019-03-16T06:28:17.162Z,7.07
2019-03-16T06:31:47.184Z,7.09
2019-03-16T06:35:24.415Z,7.23
2019-03-16T06:38:57.369Z,7.16
2019-03-16T06:42:27.481Z,7.24
2019-03-16T06:45:57.513Z,7.41
2019-03-16T06:49:27.586Z,7.64
2019-03-16T06:52:57.685Z,7.86
2019-03-16T06:56:27.643Z,7.97
2019-03-16T06:59:57.563Z,8.15
2019-03-16T07:03:27.665Z,8.37
2019-03-16T07:06:57.727Z,8.57
2019-03-16T07:10:27.739Z,8.78
2019-03-16T07:13:57.768Z,8.91
2019-03-16T07:17:27.839Z,9.09
2019-03-16T07:20:57.967Z,9.31
2019-03-16T07:24:28.059Z,9.38
2019-03-16T07:27:58.091Z,9.41
2019-03-16T07:31:28.164Z,9.5
2019-03-16T07:34:58.277Z,9.62
2019-03-16T07:38:28.308Z,9.8
2019-03-16T07:42:00.640Z,9.88
2019-03-16T07:45:30.963Z,9.9
2019-03-16T07:49:00.936Z,10.11
2019-03-16T07:52:31.169Z,10.29
2019-03-16T07:56:01.351Z,10.57
2019-03-16T07:59:31.513Z,10.72
2019-03-16T08:00:16.204Z,10.7
2019-03-16T08:03:46.200Z,10.71
2019-03-16T08:07:16.305Z,10.57
2019-03-16T08:10:46.298Z,10.69
2019-03-16T08:14:16.503Z,10.72
2019-03-16T08:17:46.512Z,10.63
2019-03-16T08:21:16.672Z,10.47
2019-03-16T08:24:46.766Z,10.36
2019-03-16T08:28:16.881Z,10.75
2019-03-16T08:31:46.931Z,11.24
2019-03-16T08:35:17.202Z,11.5
2019-03-16T08:38:47.268Z,11.75
2019-03-16T08:42:17.456Z,11.93
2019-03-16T08:45:47.489Z,11.94
2019-03-16T08:49:17.501Z,12
2019-03-16T08:52:47.575Z,11.93
2019-03-16T08:56:17.598Z,11.98
2019-03-16T08:59:47.620Z,12.14
2019-03-16T09:03:17.746Z,12.06
2019-03-16T09:06:47.856Z,12.32
2019-03-16T09:10:17.951Z,12.53
2019-03-16T09:13:48.014Z,12.46
2019-03-16T09:17:18.064Z,12.51
2019-03-16T09:20:48.086Z,12.64
2019-03-16T09:24:18.079Z,12.75
2019-03-16T09:27:48.063Z,12.64
2019-03-16T09:31:18.126Z,12.61
2019-03-16T09:34:48.191Z,12.63
2019-03-16T09:38:18.302Z,12.77
2019-03-16T09:41:48.314Z,12.78
2019-03-16T09:45:19.427Z,12.85
2019-03-16T09:48:49.401Z,12.97
2019-03-16T09:52:19.453Z,13.04
2019-03-16T09:55:49.536Z,13.09
2019-03-16T09:59:19.688Z,13.29
2019-03-16T10:00:16.319Z,13.46
2019-03-16T10:03:46.382Z,13.46
2019-03-16T10:07:16.427Z,13.67
2019-03-16T10:10:46.448Z,13.78
2019-03-16T10:14:16.562Z,14.02
2019-03-16T10:17:46.644Z,14.37
2019-03-16T10:21:18.856Z,14.34
2019-03-16T10:24:49.110Z,14.22
2019-03-16T10:28:19.154Z,14.51
2019-03-16T10:31:49.121Z,14.85
2019-03-16T10:35:19.139Z,14.82
2019-03-16T10:38:49.113Z,14.61
2019-03-16T10:42:19.245Z,15.07
2019-03-16T10:45:50.211Z,15.46
2019-03-16T10:49:20.301Z,15.36
2019-03-16T10:52:50.353Z,15.17
2019-03-16T10:56:20.478Z,15.3
2019-03-16T10:59:50.501Z,15.41
2019-03-16T11:03:20.569Z,15.49
2019-03-16T11:06:50.539Z,15.66
2019-03-16T11:10:20.591Z,15.94
2019-03-16T11:13:50.662Z,16.06
2019-03-16T11:17:20.714Z,15.87
2019-03-16T11:20:50.778Z,15.93
2019-03-16T11:24:20.904Z,15.76
2019-03-16T11:27:51.117Z,16.2
2019-03-16T11:31:21.188Z,16.5
2019-03-16T11:34:51.261Z,16.63
2019-03-16T11:38:21.405Z,16.47
2019-03-16T11:41:51.551Z,16.74
2019-03-16T11:45:21.796Z,16.76
2019-03-16T11:48:52.774Z,16.96
2019-03-16T11:52:22.936Z,16.81
2019-03-16T11:55:54.427Z,16.69
2019-03-16T11:59:24.784Z,16.68
2019-03-16T12:00:16.414Z,16.72
2019-03-16T12:03:46.469Z,16.52
2019-03-16T12:07:16.533Z,16.53
2019-03-16T12:10:46.582Z,16.62
2019-03-16T12:14:16.654Z,16.64
2019-03-16T12:17:46.799Z,16.67
2019-03-16T12:21:16.895Z,16.27
2019-03-16T12:24:47.063Z,16.48
2019-03-16T12:28:17.135Z,15.93
2019-03-16T12:31:47.095Z,15.53
2019-03-16T12:35:17.185Z,15.62
2019-03-16T12:38:47.250Z,15.39
2019-03-16T12:42:17.306Z,15.45
2019-03-16T12:45:47.371Z,15.98
2019-03-16T12:49:18.357Z,16.34
2019-03-16T12:52:48.371Z,16.04
2019-03-16T12:56:18.467Z,15.73
2019-03-16T12:59:48.453Z,16.03
2019-03-16T13:03:18.679Z,16.26
2019-03-16T13:06:48.792Z,16.12
2019-03-16T13:10:18.937Z,15.84
2019-03-16T13:13:49.072Z,16
2019-03-16T13:17:19.108Z,16.07
2019-03-16T13:20:49.193Z,16.2
2019-03-16T13:24:19.261Z,16.48
2019-03-16T13:27:49.214Z,16.52
2019-03-16T13:31:19.323Z,16.33
2019-03-16T13:34:49.369Z,16.23
2019-03-16T13:38:19.449Z,16.16
2019-03-16T13:41:49.514Z,16.04
2019-03-16T13:45:19.689Z,15.98
2019-03-16T13:48:49.715Z,16.16
2019-03-16T13:52:20.969Z,16.3
2019-03-16T13:55:50.985Z,16.42
2019-03-16T13:59:21.110Z,16.42
2019-03-16T14:00:16.309Z,16.5
2019-03-16T14:03:46.414Z,16.62
2019-03-16T14:07:16.719Z,16.76
2019-03-16T14:10:46.754Z,16.86
2019-03-16T14:14:17.120Z,16.9
2019-03-16T14:17:47.185Z,17.15
2019-03-16T14:21:17.500Z,17.29
2019-03-16T14:24:47.535Z,17.46
2019-03-16T14:28:17.611Z,17.47
2019-03-16T14:31:47.675Z,17.53
2019-03-16T14:35:17.811Z,17.69
2019-03-16T14:38:47.916Z,17.66
2019-03-16T14:42:18.020Z,17.58
2019-03-16T14:45:49.143Z,17.42
2019-03-16T14:49:19.315Z,17.05
2019-03-16T14:52:51.053Z,16.66
2019-03-16T14:56:21.152Z,16.47
2019-03-16T14:59:51.178Z,16.42
2019-03-16T15:03:21.415Z,16.09
2019-03-16T15:06:51.388Z,15.89
2019-03-16T15:10:21.363Z,15.96
2019-03-16T15:13:51.399Z,15.99
2019-03-16T15:17:21.453Z,15.97
2019-03-16T15:20:51.529Z,16.07
2019-03-16T15:24:21.674Z,16.04
2019-03-16T15:27:51.763Z,16.16
2019-03-16T15:31:22.832Z,16.19
2019-03-16T15:34:52.910Z,16.2
2019-03-16T15:38:22.951Z,16.12
2019-03-16T15:41:53.020Z,16.09
2019-03-16T15:45:23.165Z,16.13
2019-03-16T15:48:53.322Z,16.17
2019-03-16T15:52:23.529Z,16.17
2019-03-16T15:55:54.562Z,16.15
2019-03-16T15:59:24.746Z,16.12
2019-03-16T16:00:16.335Z,16.07
2019-03-16T16:03:46.430Z,16.03
2019-03-16T16:07:16.695Z,15.93
2019-03-16T16:10:59.730Z,15.97
2019-03-16T16:14:31.225Z,15.9
2019-03-16T16:18:01.242Z,15.9
2019-03-16T16:21:31.365Z,15.93
2019-03-16T16:25:01.560Z,15.85
2019-03-16T16:28:31.675Z,15.86
2019-03-16T16:32:01.771Z,15.84
2019-03-16T16:35:31.876Z,15.79
2019-03-16T16:39:02.725Z,15.73
2019-03-16T16:42:32.895Z,15.68
2019-03-16T16:46:02.982Z,15.7
2019-03-16T16:49:33.046Z,15.67
2019-03-16T16:53:03.171Z,15.57
2019-03-16T16:56:34.098Z,15.52
2019-03-16T17:00:06.262Z,15.48
2019-03-16T17:03:36.333Z,15.48
2019-03-16T17:07:06.322Z,15.49
2019-03-16T17:10:36.377Z,15.47
2019-03-16T17:14:06.542Z,15.46
2019-03-16T17:17:36.561Z,15.44
2019-03-16T17:21:06.632Z,15.37
2019-03-16T17:24:36.735Z,15.37
2019-03-16T17:28:06.662Z,15.3
2019-03-16T17:31:42.076Z,15.31
2019-03-16T17:35:12.812Z,15.27
2019-03-16T17:38:42.867Z,15.2
2019-03-16T17:42:12.963Z,15.16
2019-03-16T17:45:43.068Z,15.08
2019-03-16T17:49:13.143Z,15.16
2019-03-16T17:52:43.198Z,15.3
2019-03-16T17:56:13.222Z,15.54
2019-03-16T17:59:43.368Z,15.71
2019-03-16T18:00:16.188Z,15.71
2019-03-16T18:03:46.302Z,15.86
2019-03-16T18:07:16.562Z,15.96
2019-03-16T18:10:46.532Z,16.01
2019-03-16T18:14:16.568Z,16.01
2019-03-16T18:17:46.694Z,16.01
2019-03-16T18:21:16.738Z,15.94
2019-03-16T18:24:46.747Z,15.97
2019-03-16T18:28:16.968Z,15.96
2019-03-16T18:31:46.994Z,15.95
2019-03-16T18:35:17.088Z,15.97
2019-03-16T18:38:47.204Z,15.9
2019-03-16T18:42:17.389Z,15.89
2019-03-16T18:45:47.394Z,15.85
2019-03-16T18:49:17.404Z,15.89
2019-03-16T18:52:47.430Z,15.96
2019-03-16T18:56:17.425Z,15.95
2019-03-16T18:59:48.416Z,15.96
2019-03-16T19:03:18.640Z,15.98
2019-03-16T19:06:48.736Z,15.96
2019-03-16T19:10:18.891Z,15.97
2019-03-16T19:13:49.035Z,15.98
2019-03-16T19:17:19.160Z,15.96
2019-03-16T19:20:49.235Z,15.95
2019-03-16T19:24:19.260Z,16.03
2019-03-16T19:27:49.382Z,16.04
2019-03-16T19:31:19.461Z,16.04
2019-03-16T19:34:49.435Z,16.12
2019-03-16T19:38:19.436Z,16.16
2019-03-16T19:41:49.476Z,16.14
2019-03-16T19:45:19.641Z,16.14
2019-03-16T19:48:49.667Z,16.13
2019-03-16T19:52:19.721Z,16.04
2019-03-16T19:55:49.805Z,16.02
2019-03-16T19:59:19.902Z,16
2019-03-16T20:00:17.152Z,15.97
2019-03-16T20:03:47.135Z,15.92
2019-03-16T20:07:19.429Z,15.85
2019-03-16T20:10:49.762Z,15.81
2019-03-16T20:14:19.981Z,15.86
2019-03-16T20:17:50.189Z,15.8
2019-03-16T20:21:20.261Z,15.71
2019-03-16T20:24:50.266Z,15.55
2019-03-16T20:28:20.431Z,15.56
2019-03-16T20:31:50.527Z,15.55
2019-03-16T20:35:20.716Z,15.45
2019-03-16T20:38:50.859Z,15.42
2019-03-16T20:42:20.939Z,15.51
2019-03-16T20:45:51.040Z,15.47
2019-03-16T20:49:21.131Z,15.46
2019-03-16T20:52:51.148Z,15.36
2019-03-16T20:56:21.294Z,15.24
2019-03-16T20:59:51.419Z,15.17
2019-03-16T21:03:21.684Z,14.99
2019-03-16T21:06:51.748Z,14.31
2019-03-16T21:10:21.886Z,13.52
2019-03-16T21:13:51.917Z,13.02
2019-03-16T21:17:22.076Z,12.76
2019-03-16T21:20:52.188Z,12.59
2019-03-16T21:24:22.231Z,12.52
2019-03-16T21:27:52.208Z,12.48
2019-03-16T21:31:22.309Z,12.37
2019-03-16T21:34:52.384Z,12.07
2019-03-16T21:38:22.500Z,11.85
2019-03-16T21:41:52.512Z,11.63
2019-03-16T21:45:22.608Z,11.45
2019-03-16T21:48:52.671Z,11.38
2019-03-16T21:52:22.805Z,11.32
2019-03-16T21:55:52.850Z,11.36
2019-03-16T21:59:22.859Z,11.38
2019-03-16T22:00:16.450Z,11.39
2019-03-16T22:03:47.549Z,11.4
2019-03-16T22:07:17.721Z,11.37
2019-03-16T22:10:47.876Z,11.39
2019-03-16T22:14:18.120Z,11.46
2019-03-16T22:17:48.145Z,11.54
2019-03-16T22:21:18.191Z,11.55
2019-03-16T22:24:48.304Z,11.58
2019-03-16T22:28:18.468Z,11.62
2019-03-16T22:31:48.424Z,11.58
2019-03-16T22:35:18.355Z,11.63
2019-03-16T22:38:48.352Z,11.61
2019-03-16T22:42:18.495Z,11.6
2019-03-16T22:45:48.470Z,11.63
2019-03-16T22:49:18.534Z,11.5
2019-03-16T22:52:48.628Z,11.38
2019-03-16T22:56:18.686Z,11.25
2019-03-16T22:59:48.647Z,11.14
2019-03-16T23:03:18.791Z,11.09
2019-03-16T23:06:49.836Z,11.1
2019-03-16T23:10:19.993Z,11.06
2019-03-16T23:13:50.094Z,11.01
2019-03-16T23:17:20.143Z,11.07
2019-03-16T23:20:50.223Z,11.23
2019-03-16T23:24:20.300Z,11.41
2019-03-16T23:27:50.412Z,11.53
2019-03-16T23:31:20.486Z,11.3
2019-03-16T23:34:50.635Z,11.31
2019-03-16T23:38:20.754Z,11.3
2019-03-16T23:41:50.849Z,11.4
2019-03-16T23:45:20.944Z,11.14
2019-03-16T23:48:50.978Z,10.97
2019-03-16T23:52:21.044Z,10.96
2019-03-16T23:55:51.106Z,10.96
2019-03-16T23:59:21.173Z,10.94
